Time;durP1;ratioP1;P1;durP2;ratioP2;P2;SDS_P1;SDS_P2;PMS_P1;PMS_P2;Temp;Humidity;BMP_temperature;BMP_pressure;BME280_temperature;BME280_humidity;BME280_pressure;Samples;Min_cycle;Max_cycle;Signal;HPM_P1;HPM_P2
2022/12/14 00:01:08;;;;;;;12.55;6.40;;;2.20;48.70;;;;;;5023806;28;20057;-46
2022/12/14 00:03:36;;;;;;;10.63;5.35;;;2.20;48.70;;;;;;5025339;28;20066;-44
2022/12/14 00:06:10;;;;;;;13.35;6.75;;;2.20;48.80;;;;;;5023686;28;20053;-44
2022/12/14 00:08:37;;;;;;;12.30;5.78;;;2.20;48.80;;;;;;5021240;28;20382;-45
2022/12/14 00:11:05;;;;;;;13.82;6.28;;;2.30;48.90;;;;;;5024406;28;20058;-48
2022/12/14 00:13:34;;;;;;;12.43;5.90;;;2.30;48.90;;;;;;5021315;28;20424;-44
2022/12/14 00:16:08;;;;;;;13.70;6.88;;;2.30;48.90;;;;;;5025317;28;20527;-49
2022/12/14 00:18:36;;;;;;;11.27;5.70;;;2.30;48.90;;;;;;5025052;28;20521;-43
2022/12/14 00:21:04;;;;;;;9.50;5.63;;;2.30;48.80;;;;;;5023153;28;20136;-44
2022/12/14 00:23:32;;;;;;;12.80;5.50;;;2.30;48.80;;;;;;5021205;28;20057;-46
2022/12/14 00:26:06;;;;;;;12.27;6.20;;;2.30;48.80;;;;;;5025033;28;20421;-46
2022/12/14 00:28:34;;;;;;;;;;;2.30;48.80;;;;;;5022545;28;20053;-43
2022/12/14 00:31:01;;;;;;;12.68;5.82;;;2.40;48.90;;;;;;5024295;28;19929;-42
2022/12/14 00:33:28;;;;;;;11.23;6.00;;;2.40;48.80;;;;;;5023991;28;20057;-47
2022/12/14 00:35:56;;;;;;;13.20;6.40;;;2.40;48.70;;;;;;5023337;28;20489;-44
2022/12/14 00:38:23;;;;;;;10.48;5.07;;;2.40;48.60;;;;;;5022767;28;20068;-44
2022/12/14 00:40:50;;;;;;;11.60;6.28;;;2.40;48.60;;;;;;5023346;28;20080;-42
2022/12/14 00:43:18;;;;;;;11.30;5.70;;;2.40;48.60;;;;;;5022135;28;20049;-49
2022/12/14 00:45:46;;;;;;;13.20;6.03;;;2.30;48.60;;;;;;5024636;28;20420;-44
2022/12/14 00:48:14;;;;;;;12.52;5.50;;;2.30;48.50;;;;;;5023906;28;20057;-43
2022/12/14 00:50:41;;;;;;;13.75;5.72;;;2.30;48.60;;;;;;5022989;28;20071;-42
2022/12/14 00:53:09;;;;;;;11.25;5.88;;;2.30;48.50;;;;;;5023580;28;20045;-44
2022/12/14 00:55:41;;;;;;;12.75;6.10;;;2.30;48.60;;;;;;5022312;28;20060;-44
2022/12/14 00:58:10;;;;;;;12.32;5.97;;;2.30;48.60;;;;;;5022903;28;20061;-47
2022/12/14 01:00:37;;;;;;;11.02;6.05;;;2.30;48.60;;;;;;5024719;28;20049;-45
2022/12/14 01:03:07;;;;;;;11.18;6.03;;;2.30;48.60;;;;;;5024059;28;20398;-44
2022/12/14 01:05:34;;;;;;;8.88;5.35;;;2.40;48.60;;;;;;5021561;28;20060;-43
2022/12/14 01:08:02;;;;;;;11.10;5.75;;;2.30;48.60;;;;;;5024250;28;20065;-46
2022/12/14 01:10:29;;;;;;;10.57;5.30;;;2.30;48.60;;;;;;5019110;28;20046;-47
2022/12/14 01:12:56;;;;;;;11.98;6.28;;;2.40;48.60;;;;;;5024425;28;20053;-45
2022/12/14 01:15:23;;;;;;;9.63;5.25;;;2.40;48.60;;;;;;5020813;28;20053;-46
2022/12/14 01:17:51;;;;;;;9.38;5.47;;;2.40;48.60;;;;;;5023728;28;20064;-43
2022/12/14 01:20:20;;;;;;;11.10;5.60;;;2.40;48.60;;;;;;5021644;28;20053;-47
2022/12/14 01:22:47;;;;;;;11.65;5.30;;;2.40;48.60;;;;;;5022771;28;20389;-45
2022/12/14 01:25:14;;;;;;;10.65;5.55;;;2.40;48.60;;;;;;5020429;28;20053;-46
2022/12/14 01:27:42;;;;;;;10.40;5.07;;;2.40;48.60;;;;;;5024521;28;20497;-47
2022/12/14 01:30:09;;;;;;;10.23;5.25;;;2.40;48.60;;;;;;5020462;28;20053;-46
2022/12/14 01:32:37;;;;;;;10.18;5.15;;;2.40;48.60;;;;;;5021569;28;20060;-47
2022/12/14 01:35:05;;;;;;;10.52;5.25;;;2.40;48.60;;;;;;5019828;28;20099;-46
2022/12/14 01:37:33;;;;;;;9.23;4.90;;;2.40;48.50;;;;;;5021832;28;20072;-43
2022/12/14 01:40:00;;;;;;;9.60;4.40;;;2.40;48.40;;;;;;5023217;28;20054;-45
2022/12/14 01:42:28;;;;;;;11.45;5.65;;;2.40;48.90;;;;;;5023161;28;20049;-48
2022/12/14 01:44:57;;;;;;;10.20;5.53;;;2.40;48.50;;;;;;5019740;28;20069;-47
2022/12/14 01:47:34;;;;;;;11.20;4.68;;;2.40;48.40;;;;;;5022017;28;20057;-43
2022/12/14 01:50:08;;;;;;;10.65;5.43;;;2.40;48.40;;;;;;5022129;28;20060;-44
2022/12/14 01:52:40;;;;;;;12.02;4.95;;;2.40;48.20;;;;;;5020401;28;20049;-44
2022/12/14 01:55:12;;;;;;;10.07;4.85;;;2.40;48.20;;;;;;5020356;28;20495;-44
2022/12/14 01:57:42;;;;;;;12.27;5.57;;;2.40;48.20;;;;;;5023279;28;20058;-43
2022/12/14 02:00:13;;;;;;;8.65;4.78;;;2.40;48.10;;;;;;5021952;28;20053;-44
2022/12/14 02:02:44;;;;;;;10.85;5.10;;;2.40;48.10;;;;;;5023127;28;20061;-45
2022/12/14 02:05:13;;;;;;;10.60;5.47;;;2.40;48.10;;;;;;5016663;28;20061;-43
2022/12/14 02:07:43;;;;;;;10.13;5.35;;;2.40;48.10;;;;;;5022254;28;20068;-45
2022/12/14 02:10:11;;;;;;;10.55;5.80;;;2.40;48.10;;;;;;5023341;28;20056;-43
2022/12/14 02:12:41;;;;;;;10.60;5.10;;;2.40;48.10;;;;;;5023476;28;20061;-43
2022/12/14 02:15:10;;;;;;;9.18;4.80;;;2.40;48.10;;;;;;5018794;28;20412;-47
2022/12/14 02:17:38;;;;;;;11.60;5.05;;;2.40;48.10;;;;;;5023306;28;20054;-44
2022/12/14 02:20:06;;;;;;;8.13;4.75;;;2.40;48.20;;;;;;5022401;28;20060;-47
2022/12/14 02:23:08;;;;;;;10.77;5.03;;;2.40;48.20;;;;;;5021881;28;20056;-43
2022/12/14 02:26:08;;;;;;;11.90;5.75;;;2.40;48.10;;;;;;5021783;28;20053;-45
2022/12/14 02:29:13;;;;;;;12.60;5.63;;;2.40;48.00;;;;;;5021177;28;20084;-44
2022/12/14 02:31:48;;;;;;;11.13;5.60;;;2.40;47.90;;;;;;5021047;28;20054;-43
2022/12/14 02:34:26;;;;;;;9.85;5.53;;;2.40;47.90;;;;;;5021450;28;20420;-50
2022/12/14 02:37:00;;;;;;;11.15;5.97;;;2.40;47.90;;;;;;5017098;28;20061;-44
2022/12/14 02:39:34;;;;;;;11.20;5.55;;;2.40;48.40;;;;;;5018125;28;20061;-46
2022/12/14 02:42:08;;;;;;;7.75;4.55;;;2.40;47.90;;;;;;5021299;28;20440;-45
2022/12/14 02:44:39;;;;;;;;;;;2.40;47.90;;;;;;5020483;28;20516;-46
2022/12/14 02:47:14;;;;;;;11.10;5.20;;;2.40;48.00;;;;;;5022162;28;19925;-44
2022/12/14 02:49:53;;;;;;;9.52;5.32;;;2.40;47.90;;;;;;5020881;28;20065;-44
2022/12/14 02:52:30;;;;;;;12.23;5.13;;;2.40;47.90;;;;;;5021274;28;20065;-49
2022/12/14 02:55:04;;;;;;;10.43;5.57;;;2.40;47.90;;;;;;5019411;28;20045;-45
2022/12/14 02:57:38;;;;;;;9.63;5.30;;;2.40;47.90;;;;;;5021417;28;20080;-47
2022/12/14 03:00:07;;;;;;;12.10;5.55;;;2.40;47.90;;;;;;5019053;28;20046;-46
2022/12/14 03:02:41;;;;;;;11.50;5.00;;;2.40;48.00;;;;;;5021295;28;20049;-46
2022/12/14 03:05:09;;;;;;;10.30;5.28;;;2.40;48.00;;;;;;5022506;28;20062;-50
2022/12/14 03:07:44;;;;;;;11.88;5.82;;;2.40;48.10;;;;;;5017807;28;20064;-52
2022/12/14 03:10:21;;;;;;;10.77;5.47;;;2.40;48.20;;;;;;5022865;28;20046;-49
2022/12/14 03:12:56;;;;;;;11.25;5.22;;;2.30;48.20;;;;;;5018728;28;20060;-51
2022/12/14 03:15:26;;;;;;;9.38;5.30;;;2.30;48.10;;;;;;5015771;28;20489;-51
2022/12/14 03:18:00;;;;;;;11.93;5.55;;;2.30;48.10;;;;;;5021809;28;20060;-52
2022/12/14 03:20:30;;;;;;;11.23;5.72;;;2.30;48.10;;;;;;5020221;28;20045;-49
2022/12/14 03:23:01;;;;;;;12.02;5.75;;;2.30;48.10;;;;;;5020706;28;20508;-51
2022/12/14 03:25:32;;;;;;;11.13;6.03;;;2.30;48.00;;;;;;5020417;28;20058;-45
2022/12/14 03:28:05;;;;;;;10.20;5.50;;;2.30;48.00;;;;;;5014325;28;20045;-47
2022/12/14 03:30:36;;;;;;;10.45;5.63;;;2.30;48.00;;;;;;5019173;28;20049;-46
2022/12/14 03:33:10;;;;;;;11.00;5.70;;;2.30;48.10;;;;;;5024352;28;20061;-44
2022/12/14 03:35:46;;;;;;;10.27;5.53;;;2.30;48.10;;;;;;5021163;28;20507;-47
2022/12/14 03:38:18;;;;;;;11.93;5.82;;;2.30;48.20;;;;;;5023996;28;20448;-45
2022/12/14 03:40:54;;;;;;;14.85;6.70;;;2.30;48.20;;;;;;5022416;28;20049;-44
2022/12/14 03:43:28;;;;;;;11.18;5.63;;;2.30;48.20;;;;;;5024561;28;20057;-44
2022/12/14 03:46:04;;;;;;;14.30;5.50;;;2.30;48.20;;;;;;5024015;28;20539;-45
2022/12/14 03:48:37;;;;;;;10.50;6.03;;;2.30;48.30;;;;;;5025274;28;20398;-43
2022/12/14 03:51:12;;;;;;;10.23;5.40;;;2.30;48.30;;;;;;5023498;28;20385;-43
2022/12/14 03:53:47;;;;;;;11.45;5.35;;;2.30;48.30;;;;;;5024437;28;20041;-44
2022/12/14 03:56:20;;;;;;;11.98;6.00;;;2.30;48.40;;;;;;5024106;28;20053;-45
2022/12/14 03:59:05;;;;;;;12.32;5.45;;;2.40;48.50;;;;;;5023909;28;20061;-48
2022/12/14 04:01:40;;;;;;;12.73;6.07;;;2.40;48.50;;;;;;5024521;28;20061;-44
2022/12/14 04:04:14;;;;;;;11.60;5.32;;;2.40;48.50;;;;;;5025936;28;20057;-42
2022/12/14 04:06:46;;;;;;;10.32;5.20;;;2.40;48.50;;;;;;5024446;28;20058;-43
2022/12/14 04:09:26;;;;;;;12.32;6.00;;;2.40;48.50;;;;;;5026537;28;20421;-43
2022/12/14 04:20:42;;;;;;;12.85;6.18;;;2.50;48.30;;;;;;4987061;28;20134;-45
2022/12/14 04:23:14;;;;;;;10.75;5.47;;;2.40;48.40;;;;;;5009334;28;20382;-46
2022/12/14 04:26:03;;;;;;;12.63;6.13;;;2.40;48.40;;;;;;5025194;28;20394;-45
2022/12/14 04:31:23;;;;;;;13.13;5.65;;;2.40;48.40;;;;;;5028319;28;20053;-44
2022/12/14 04:33:54;;;;;;;12.68;5.90;;;2.50;48.40;;;;;;5017410;28;20068;-48
2022/12/14 04:36:28;;;;;;;12.00;6.05;;;2.40;48.40;;;;;;5022811;28;20049;-47
2022/12/14 04:38:57;;;;;;;;;;;2.50;48.40;;;;;;5024830;28;20507;-46
2022/12/14 04:41:31;;;;;;;11.38;5.72;;;2.50;48.50;;;;;;5024470;28;19921;-45
2022/12/14 04:44:01;;;;;;;14.50;6.28;;;2.50;48.40;;;;;;5024380;28;20061;-45
2022/12/14 04:46:33;;;;;;;13.60;6.57;;;2.50;48.40;;;;;;5023319;28;20072;-43
2022/12/14 04:49:08;;;;;;;12.93;5.95;;;2.50;48.30;;;;;;5022351;28;20060;-44
2022/12/14 04:51:46;;;;;;;12.25;6.22;;;2.50;48.20;;;;;;5020046;28;20051;-43
2022/12/14 04:54:22;;;;;;;12.50;6.28;;;2.50;48.20;;;;;;5023302;28;20057;-43
2022/12/14 04:56:56;;;;;;;13.60;6.40;;;2.50;48.30;;;;;;5022115;28;20056;-46
2022/12/14 04:59:24;;;;;;;10.70;6.25;;;2.50;48.20;;;;;;5023580;28;20053;-44
2022/12/14 05:02:03;;;;;;;13.93;6.97;;;2.50;48.10;;;;;;5021788;28;20137;-44
2022/12/14 05:04:53;;;;;;;10.45;5.78;;;2.50;48.00;;;;;;5019138;28;20060;-43
2022/12/14 05:07:34;;;;;;;11.32;5.70;;;2.50;48.10;;;;;;5022072;28;20053;-44
2022/12/14 05:10:06;;;;;;;9.02;4.95;;;2.50;48.10;;;;;;5022402;28;20501;-46
2022/12/14 05:12:40;;;;;;;11.20;6.25;;;2.50;48.10;;;;;;5034316;28;20422;-46
2022/12/14 05:15:10;;;;;;;13.50;6.47;;;2.50;48.60;;;;;;5061230;28;20067;-46
2022/12/14 05:17:39;;;;;;;11.68;5.68;;;2.50;48.10;;;;;;5049906;28;20487;-47
2022/12/14 05:20:13;;;;;;;13.15;5.93;;;2.50;48.20;;;;;;5052966;28;20059;-48
2022/12/14 05:22:42;;;;;;;9.73;5.80;;;2.60;48.20;;;;;;5056891;28;20476;-46
2022/12/14 05:25:09;;;;;;;17.40;6.45;;;2.60;48.10;;;;;;5057526;28;20048;-49
2022/12/14 05:27:37;;;;;;;12.88;6.28;;;2.60;48.10;;;;;;5050882;28;20389;-46
2022/12/14 05:30:06;;;;;;;13.68;6.70;;;2.60;48.20;;;;;;5055745;28;20064;-47
2022/12/14 05:32:34;;;;;;;13.32;6.72;;;2.50;48.00;;;;;;5053555;28;20403;-45
2022/12/14 05:35:02;;;;;;;10.60;5.50;;;2.60;48.00;;;;;;5039803;28;20056;-42
2022/12/14 05:37:29;;;;;;;14.40;6.95;;;2.60;48.10;;;;;;5058324;28;20411;-44
2022/12/14 05:39:58;;;;;;;14.60;6.90;;;2.60;48.10;;;;;;5052095;28;20055;-45
2022/12/14 05:42:25;;;;;;;13.18;6.80;;;2.60;48.00;;;;;;5051198;28;20044;-45
2022/12/14 05:44:53;;;;;;;13.65;6.97;;;2.60;48.00;;;;;;5058306;28;20440;-44
2022/12/14 05:47:20;;;;;;;13.38;6.55;;;2.60;47.90;;;;;;5061955;28;20056;-45
2022/12/14 05:49:48;;;;;;;14.65;6.53;;;2.50;47.80;;;;;;5056678;28;20057;-47
2022/12/14 05:52:15;;;;;;;12.80;6.35;;;2.60;47.80;;;;;;5054689;28;20480;-46
2022/12/14 05:54:42;;;;;;;12.52;6.20;;;2.60;47.80;;;;;;5058577;28;20048;-45
2022/12/14 05:57:11;;;;;;;13.02;6.85;;;2.50;47.70;;;;;;5056603;28;20048;-47
2022/12/14 05:59:39;;;;;;;16.95;7.22;;;2.60;47.80;;;;;;5053293;28;20483;-48
2022/12/14 06:02:06;;;;;;;14.85;7.05;;;2.60;47.90;;;;;;5057124;28;20060;-47
2022/12/14 06:04:33;;;;;;;18.92;7.25;;;2.60;47.90;;;;;;5053157;28;20044;-43
2022/12/14 06:07:00;;;;;;;13.38;6.60;;;2.60;47.80;;;;;;5049501;28;20052;-45
2022/12/14 06:09:28;;;;;;;14.82;6.28;;;2.60;47.70;;;;;;5053783;28;20052;-43
2022/12/14 06:11:55;;;;;;;13.35;6.72;;;2.50;47.80;;;;;;5055267;28;20420;-45
2022/12/14 06:14:24;;;;;;;13.70;6.28;;;2.60;47.80;;;;;;5060516;28;20052;-46
2022/12/14 06:16:51;;;;;;;46.38;18.90;;;2.60;47.80;;;;;;5048387;28;20060;-43
2022/12/14 06:19:19;;;;;;;84.20;30.70;;;2.60;47.80;;;;;;5041977;28;20491;-49
2022/12/14 06:21:46;;;;;;;27.77;12.02;;;2.50;47.80;;;;;;5057864;28;20056;-46
2022/12/14 06:24:14;;;;;;;15.93;8.27;;;2.60;47.80;;;;;;5055444;28;20047;-45
2022/12/14 06:26:42;;;;;;;13.25;7.03;;;2.60;47.80;;;;;;5057689;28;20075;-45
2022/12/14 06:29:14;;;;;;;11.77;6.07;;;2.60;47.80;;;;;;5059880;28;20079;-42
2022/12/14 06:31:43;;;;;;;14.43;7.25;;;2.60;47.80;;;;;;5055551;28;20051;-47
2022/12/14 06:34:12;;;;;;;16.00;7.05;;;2.60;47.90;;;;;;5052874;28;20056;-47
2022/12/14 06:36:41;;;;;;;14.90;7.15;;;2.60;47.90;;;;;;5058343;28;20064;-46
2022/12/14 06:39:11;;;;;;;12.82;6.38;;;2.60;47.90;;;;;;5060357;28;20053;-44
2022/12/14 06:41:40;;;;;;;13.95;6.53;;;2.60;47.90;;;;;;5056546;28;20048;-47
2022/12/14 06:44:09;;;;;;;20.33;8.38;;;2.60;47.90;;;;;;5060409;28;20060;-46
2022/12/14 06:46:37;;;;;;;13.63;7.20;;;2.60;47.90;;;;;;5060809;28;20052;-42
2022/12/14 06:49:06;;;;;;;17.60;7.32;;;2.60;47.80;;;;;;5056398;28;20057;-44
2022/12/14 06:51:39;;;;;;;14.07;6.75;;;2.70;48.40;;;;;;5058571;28;20055;-45
2022/12/14 06:54:07;;;;;;;13.45;6.68;;;2.70;47.90;;;;;;5051568;28;20052;-46
2022/12/14 06:56:34;;;;;;;20.88;9.13;;;2.70;48.00;;;;;;5057085;28;20519;-46
2022/12/14 06:59:01;;;;;;;43.03;16.30;;;2.70;47.90;;;;;;5057210;28;20049;-45
2022/12/14 07:01:29;;;;;;;23.83;10.45;;;2.70;47.90;;;;;;5052557;28;20044;-45
2022/12/14 07:03:58;;;;;;;17.52;8.15;;;2.70;47.90;;;;;;5058328;28;20067;-45
2022/12/14 07:06:28;;;;;;;18.02;7.22;;;2.70;47.90;;;;;;5062069;28;20056;-44
2022/12/14 07:08:57;;;;;;;16.77;7.07;;;2.70;47.90;;;;;;5059656;28;20063;-46
2022/12/14 07:11:26;;;;;;;13.18;6.50;;;2.70;47.90;;;;;;5064985;28;20059;-43
2022/12/14 07:13:54;;;;;;;13.15;7.18;;;2.70;47.90;;;;;;5063773;28;20071;-46
2022/12/14 07:16:24;;;;;;;13.95;7.45;;;2.80;47.90;;;;;;5060214;28;20047;-45
2022/12/14 07:18:52;;;;;;;14.23;7.07;;;2.70;47.70;;;;;;5045159;28;20057;-47
2022/12/14 07:21:20;;;;;;;12.90;6.68;;;2.70;47.70;;;;;;5059525;28;20057;-44
2022/12/14 07:23:51;;;;;;;14.23;7.28;;;2.80;47.80;;;;;;5056530;28;20052;-48
2022/12/14 07:26:22;;;;;;;14.95;7.25;;;2.80;47.80;;;;;;5056250;28;20052;-45
2022/12/14 07:28:51;;;;;;;13.73;6.82;;;2.80;47.80;;;;;;5059678;28;20053;-43
2022/12/14 07:31:20;;;;;;;14.38;6.60;;;2.80;47.80;;;;;;5058552;28;20053;-44
2022/12/14 07:33:48;;;;;;;16.75;6.95;;;2.80;47.80;;;;;;5060501;28;20053;-45
2022/12/14 07:36:17;;;;;;;15.25;7.85;;;2.80;47.80;;;;;;5054659;28;20044;-44
2022/12/14 07:38:47;;;;;;;11.23;6.28;;;2.80;47.80;;;;;;5058285;28;20060;-43
2022/12/14 07:41:17;;;;;;;16.98;7.35;;;2.80;47.70;;;;;;5063432;28;20471;-45
2022/12/14 07:43:46;;;;;;;16.10;7.60;;;2.80;47.70;;;;;;5058856;28;20703;-45
2022/12/14 07:46:16;;;;;;;14.57;7.68;;;2.90;47.70;;;;;;5060936;28;20080;-43
2022/12/14 07:48:44;;;;;;;14.75;6.78;;;2.80;47.70;;;;;;5065304;28;20052;-44
2022/12/14 07:51:13;;;;;;;14.52;7.20;;;2.90;47.80;;;;;;5061699;28;20059;-46
2022/12/14 07:53:41;;;;;;;16.13;7.03;;;2.90;47.70;;;;;;5052769;28;20056;-49
2022/12/14 07:56:11;;;;;;;14.77;7.55;;;2.90;47.70;;;;;;5062456;28;20056;-43
2022/12/14 07:58:40;;;;;;;15.60;7.68;;;2.90;47.70;;;;;;5053936;28;20515;-45
2022/12/14 08:01:10;;;;;;;15.70;7.53;;;2.90;47.70;;;;;;5059814;28;20055;-47
2022/12/14 08:03:38;;;;;;;13.77;7.35;;;2.90;47.70;;;;;;5057297;28;20063;-44
2022/12/14 08:06:06;;;;;;;15.35;7.28;;;2.90;47.70;;;;;;5052396;28;20056;-47
2022/12/14 08:08:33;;;;;;;13.07;7.82;;;2.90;47.70;;;;;;5061642;28;20487;-45
2022/12/14 08:11:01;;;;;;;14.35;7.63;;;2.90;47.70;;;;;;5059746;28;20060;-45
2022/12/14 08:13:28;;;;;;;17.48;8.77;;;2.90;47.70;;;;;;5057863;28;20895;-43
2022/12/14 08:16:01;;;;;;;17.08;8.20;;;2.90;47.80;;;;;;5063619;28;20064;-44
2022/12/14 08:18:28;;;;;;;15.02;7.82;;;2.90;48.30;;;;;;5057313;28;20060;-46
2022/12/14 08:20:56;;;;;;;18.52;9.00;;;2.90;47.90;;;;;;5056109;28;20072;-45
2022/12/14 08:23:23;;;;;;;14.27;7.78;;;2.90;48.00;;;;;;5051500;28;20100;-45
2022/12/14 08:25:54;;;;;;;14.05;7.75;;;2.90;48.10;;;;;;5059346;28;20071;-44
2022/12/14 08:28:21;;;;;;;17.52;8.80;;;2.90;48.30;;;;;;5053361;28;20049;-45
2022/12/14 08:30:48;;;;;;;16.20;7.97;;;2.90;48.40;;;;;;5058893;28;20055;-47
2022/12/14 08:33:17;;;;;;;17.15;8.82;;;2.90;48.50;;;;;;5055249;28;20412;-44
2022/12/14 08:35:44;;;;;;;18.65;8.55;;;2.90;48.70;;;;;;5060419;28;20052;-42
2022/12/14 08:38:12;;;;;;;15.80;8.05;;;2.90;48.70;;;;;;5061645;28;20417;-44
2022/12/14 08:40:39;;;;;;;14.85;7.43;;;2.90;48.80;;;;;;5062742;28;20052;-43
2022/12/14 08:43:07;;;;;;;17.88;8.30;;;2.90;48.90;;;;;;5063190;28;20049;-48
2022/12/14 08:45:35;;;;;;;15.77;8.93;;;2.90;49.00;;;;;;5057160;28;20060;-47
2022/12/14 08:48:03;;;;;;;17.65;8.43;;;2.90;49.20;;;;;;5056127;28;20049;-45
2022/12/14 08:50:31;;;;;;;18.17;8.90;;;2.90;49.30;;;;;;5057675;28;20060;-44
2022/12/14 08:52:59;;;;;;;16.75;9.30;;;2.90;49.40;;;;;;5062886;28;20130;-43
2022/12/14 08:55:26;;;;;;;18.15;8.70;;;2.90;49.60;;;;;;5060543;28;20423;-45
2022/12/14 08:57:53;;;;;;;16.38;8.43;;;2.90;49.60;;;;;;5054742;28;20067;-45
2022/12/14 09:00:21;;;;;;;17.17;8.90;;;2.90;49.80;;;;;;5057723;28;21659;-47
2022/12/14 09:02:50;;;;;;;17.83;9.38;;;2.90;50.00;;;;;;5057003;28;20057;-46
2022/12/14 09:05:17;;;;;;;15.30;8.48;;;2.90;50.10;;;;;;5058549;28;20104;-43
2022/12/14 09:07:46;;;;;;;21.55;9.93;;;2.90;50.30;;;;;;5055669;28;20052;-47
2022/12/14 09:10:14;;;;;;;18.00;9.20;;;2.90;50.40;;;;;;5061644;28;20063;-42
2022/12/14 09:12:41;;;;;;;19.48;9.70;;;2.90;50.60;;;;;;5056711;28;20411;-43
2022/12/14 09:15:09;;;;;;;20.73;8.95;;;2.90;51.10;;;;;;5051580;28;20056;-45
2022/12/14 09:17:37;;;;;;;15.75;8.43;;;2.90;50.80;;;;;;5059457;28;20053;-46
2022/12/14 09:20:05;;;;;;;67.30;25.75;;;2.90;50.80;;;;;;5053908;28;20059;-45
2022/12/14 09:22:32;;;;;;;33.08;14.93;;;2.90;50.90;;;;;;5055359;28;20488;-52
2022/12/14 09:25:01;;;;;;;19.92;10.10;;;2.90;51.10;;;;;;5057089;28;20060;-53
2022/12/14 09:27:28;;;;;;;20.52;10.50;;;2.90;51.20;;;;;;5059967;28;20056;-53
2022/12/14 09:29:56;;;;;;;16.88;8.95;;;2.90;51.30;;;;;;5060469;28;20056;-53
2022/12/14 09:32:23;;;;;;;19.27;9.40;;;2.90;51.30;;;;;;5059035;28;20059;-52
2022/12/14 09:34:51;;;;;;;17.90;9.65;;;2.90;51.30;;;;;;5056109;28;20048;-51
2022/12/14 09:37:18;;;;;;;16.10;8.45;;;2.90;51.50;;;;;;5056226;28;20056;-53
2022/12/14 09:39:46;;;;;;;18.85;9.02;;;2.90;51.50;;;;;;5055105;28;20071;-52
2022/12/14 09:42:34;;;;;;;14.07;8.70;;;2.90;51.60;;;;;;5057995;28;20424;-51
2022/12/14 09:45:11;;;;;;;22.30;9.32;;;2.90;51.70;;;;;;5052054;28;20364;-52
2022/12/14 09:47:45;;;;;;;16.98;8.60;;;3.00;51.80;;;;;;5047916;28;20049;-52
2022/12/14 09:50:17;;;;;;;14.93;8.38;;;2.90;51.90;;;;;;5055980;28;20391;-51
2022/12/14 09:52:47;;;;;;;17.83;9.02;;;2.90;51.90;;;;;;5054660;28;20045;-48
2022/12/14 09:55:20;;;;;;;18.13;9.35;;;2.90;51.90;;;;;;5048939;28;20048;-53
2022/12/14 09:57:53;;;;;;;18.85;9.70;;;3.00;52.10;;;;;;5059741;28;20052;-52
2022/12/14 10:00:20;;;;;;;16.60;8.05;;;3.00;52.10;;;;;;5052980;28;20377;-52
2022/12/14 10:03:08;;;;;;;19.05;9.27;;;3.00;52.20;;;;;;5054437;28;20408;-47
2022/12/14 10:05:51;;;;;;;15.07;8.15;;;3.00;52.30;;;;;;5060458;28;20423;-51
2022/12/14 10:08:24;;;;;;;14.65;7.75;;;3.00;52.30;;;;;;5062182;28;20565;-50
2022/12/14 10:11:00;;;;;;;15.10;8.57;;;3.00;52.20;;;;;;5059354;28;20130;-52
2022/12/14 10:13:39;;;;;;;16.90;8.32;;;3.00;52.20;;;;;;5059621;28;20509;-52
2022/12/14 10:16:14;;;;;;;20.85;11.82;;;3.10;52.30;;;;;;5059620;28;20059;-53
2022/12/14 10:18:55;;;;;;;16.48;8.65;;;3.10;52.30;;;;;;5061668;28;20060;-52
2022/12/14 10:21:25;;;;;;;16.63;9.00;;;3.10;52.30;;;;;;5059874;28;20048;-50
2022/12/14 10:23:57;;;;;;;17.55;9.30;;;3.10;52.30;;;;;;5058308;28;20060;-52
2022/12/14 10:26:34;;;;;;;43.17;18.90;;;3.10;52.30;;;;;;5061147;28;20053;-51
2022/12/14 10:29:07;;;;;;;24.13;12.55;;;3.10;52.50;;;;;;5057872;28;20048;-51
2022/12/14 10:31:44;;;;;;;18.40;9.35;;;3.10;52.60;;;;;;5053121;28;20079;-52
2022/12/14 10:34:18;;;;;;;14.93;8.25;;;3.20;52.70;;;;;;5059074;28;20071;-52
2022/12/14 10:36:52;;;;;;;14.63;8.13;;;3.20;52.60;;;;;;5059192;28;20049;-49
2022/12/14 10:39:31;;;;;;;15.43;9.75;;;3.20;52.60;;;;;;5056107;28;20408;-52
2022/12/14 10:42:04;;;;;;;18.90;10.00;;;3.20;52.50;;;;;;5048529;28;20052;-52
2022/12/14 10:44:39;;;;;;;17.50;8.88;;;3.20;52.50;;;;;;5058301;28;20048;-52
2022/12/14 10:47:14;;;;;;;17.70;8.55;;;3.30;52.60;;;;;;5051910;28;20048;-50
2022/12/14 10:49:49;;;;;;;17.52;8.55;;;3.30;52.50;;;;;;5061166;28;20415;-53
2022/12/14 10:52:19;;;;;;;16.90;9.00;;;3.30;52.50;;;;;;5055580;28;21048;-52
2022/12/14 10:54:50;;;;;;;16.13;8.75;;;3.30;52.50;;;;;;5057150;28;20049;-53
2022/12/14 10:57:19;;;;;;;14.13;7.75;;;3.30;52.50;;;;;;5053742;28;20063;-52
2022/12/14 10:59:48;;;;;;;14.40;7.63;;;3.30;52.90;;;;;;5050209;28;20061;-51
2022/12/14 11:02:17;;;;;;;14.68;8.07;;;3.30;52.40;;;;;;5051711;28;20387;-52
2022/12/14 11:04:49;;;;;;;15.10;8.32;;;3.30;52.40;;;;;;5049572;28;20055;-52
2022/12/14 11:07:18;;;;;;;17.38;8.88;;;3.40;52.40;;;;;;5045782;28;20053;-52
2022/12/14 11:09:46;;;;;;;17.38;9.40;;;3.30;52.30;;;;;;5051135;28;20432;-51
2022/12/14 11:12:20;;;;;;;16.67;8.95;;;3.30;52.80;;;;;;5046354;28;20053;-52
2022/12/14 11:15:00;;;;;;;18.35;9.00;;;3.30;52.40;;;;;;5057249;28;20049;-53
2022/12/14 11:17:34;;;;;;;14.95;8.52;;;3.40;52.50;;;;;;5060314;28;21034;-51
2022/12/14 11:20:14;;;;;;;16.63;8.82;;;3.30;52.40;;;;;;5058297;28;20056;-52
2022/12/14 11:22:46;;;;;;;15.52;8.60;;;3.40;52.50;;;;;;5050870;28;20435;-52
2022/12/14 11:25:35;;;;;;;16.48;8.63;;;3.30;52.40;;;;;;5062087;28;20048;-52
2022/12/14 11:28:16;;;;;;;17.48;9.20;;;3.30;52.50;;;;;;5059393;28;20052;-53
2022/12/14 11:30:55;;;;;;;19.75;9.40;;;3.30;52.40;;;;;;5057376;28;20060;-52
2022/12/14 11:33:28;;;;;;;15.93;8.38;;;3.40;52.50;;;;;;5059466;28;20060;-53
2022/12/14 11:35:55;;;;;;;16.58;8.95;;;3.30;52.50;;;;;;5043566;28;21312;-53
2022/12/14 11:38:25;;;;;;;15.25;8.98;;;3.30;52.50;;;;;;5059452;28;20060;-53
2022/12/14 11:40:53;;;;;;;18.00;9.52;;;3.30;52.50;;;;;;5058932;28;20056;-51
2022/12/14 11:43:25;;;;;;;17.95;10.00;;;3.30;52.60;;;;;;5061725;28;20064;-53
2022/12/14 11:45:57;;;;;;;20.33;10.18;;;3.40;52.70;;;;;;5053994;28;20060;-51
2022/12/14 11:48:26;;;;;;;19.13;10.07;;;3.30;52.80;;;;;;5052784;28;20053;-52
2022/12/14 11:50:56;;;;;;;17.83;9.82;;;3.30;52.80;;;;;;5052282;28;20056;-53
2022/12/14 11:53:23;;;;;;;18.55;9.07;;;3.30;52.80;;;;;;5052114;28;20045;-51
2022/12/14 11:55:56;;;;;;;18.65;9.23;;;3.40;52.80;;;;;;5057566;28;20419;-53
2022/12/14 11:58:26;;;;;;;15.63;8.37;;;3.30;52.80;;;;;;5053373;28;20053;-50
2022/12/14 12:01:02;;;;;;;18.40;9.68;;;3.30;52.80;;;;;;5053121;28;20059;-52
2022/12/14 12:03:34;;;;;;;17.15;8.50;;;3.40;52.90;;;;;;5060047;28;20056;-53
2022/12/14 12:06:05;;;;;;;17.10;8.65;;;3.30;52.90;;;;;;5062547;28;20056;-51
2022/12/14 12:08:36;;;;;;;17.85;8.65;;;3.30;53.20;;;;;;5063684;28;20052;-52
2022/12/14 12:11:05;;;;;;;18.83;9.15;;;3.40;53.00;;;;;;5062961;28;20059;-51
2022/12/14 12:13:38;;;;;;;17.75;9.18;;;3.40;53.00;;;;;;5064313;28;20060;-53
2022/12/14 12:16:14;;;;;;;15.23;8.30;;;3.40;53.10;;;;;;5060321;28;20055;-49
2022/12/14 12:18:45;;;;;;;15.32;9.00;;;3.40;53.00;;;;;;5064369;28;20052;-51
2022/12/14 12:21:16;;;;;;;15.93;8.55;;;3.40;53.00;;;;;;5062050;28;20048;-51
2022/12/14 12:23:49;;;;;;;16.98;8.45;;;3.40;53.00;;;;;;5064268;28;20056;-51
2022/12/14 12:26:20;;;;;;;15.77;8.95;;;3.40;53.00;;;;;;5063246;28;20496;-53
2022/12/14 12:28:53;;;;;;;18.45;9.25;;;3.40;53.00;;;;;;5063410;28;20048;-49
2022/12/14 12:31:26;;;;;;;17.58;9.05;;;3.50;53.10;;;;;;5060159;28;20052;-48
2022/12/14 12:33:59;;;;;;;14.68;8.65;;;3.50;53.10;;;;;;5061911;28;20511;-52
2022/12/14 12:36:29;;;;;;;17.20;9.15;;;3.50;53.10;;;;;;5060507;28;20059;-52
2022/12/14 12:39:05;;;;;;;16.02;9.43;;;3.50;53.10;;;;;;5063712;28;20053;-53
2022/12/14 12:41:41;;;;;;;18.10;9.32;;;3.50;53.10;;;;;;5060445;28;20534;-52
2022/12/14 12:44:39;;;;;;;17.73;9.45;;;3.50;53.10;;;;;;5062970;28;20048;-52
2022/12/14 12:47:17;;;;;;;17.50;9.32;;;3.50;53.10;;;;;;5058979;28;20139;-51
2022/12/14 12:49:44;;;;;;;18.83;9.80;;;3.60;53.10;;;;;;5064545;28;20064;-51
2022/12/14 12:52:19;;;;;;;17.90;9.65;;;3.60;53.10;;;;;;5063588;28;20060;-53
2022/12/14 12:54:56;;;;;;;17.35;9.05;;;3.60;53.10;;;;;;5063129;28;20404;-51
2022/12/14 12:57:28;;;;;;;16.92;9.65;;;3.60;53.10;;;;;;5057323;28;20051;-52
2022/12/14 12:59:56;;;;;;;17.15;8.60;;;3.60;53.10;;;;;;5062621;28;20056;-52
2022/12/14 13:02:31;;;;;;;17.30;9.20;;;3.60;53.10;;;;;;5059957;28;20082;-51
2022/12/14 13:05:01;;;;;;;19.13;9.88;;;3.60;53.00;;;;;;5060904;28;20048;-53
2022/12/14 13:07:33;;;;;;;16.27;9.43;;;3.60;53.00;;;;;;5063519;28;20068;-52
2022/12/14 13:10:08;;;;;;;18.98;10.25;;;3.60;53.00;;;;;;5061162;28;20503;-50
2022/12/14 13:12:42;;;;;;;17.88;9.57;;;3.60;53.00;;;;;;5062165;28;20056;-46
2022/12/14 13:15:19;;;;;;;17.63;8.98;;;3.60;53.00;;;;;;5060601;28;20055;-50
2022/12/14 13:17:51;;;;;;;18.98;9.43;;;3.60;53.00;;;;;;5062872;28;20056;-50
2022/12/14 13:20:21;;;;;;;19.30;9.90;;;3.60;53.00;;;;;;5060590;28;20048;-49